createdAt,value
2022-08-04T00:00:07.200Z,4.82
2022-08-04T00:02:48.831Z,5.05
2022-08-04T00:06:13.070Z,4.72
2022-08-04T00:08:58.226Z,4.65
2022-08-04T00:11:31.400Z,4.93
2022-08-04T00:14:05.367Z,4.85
2022-08-04T00:16:38.752Z,5.00
2022-08-04T00:19:34.421Z,5.15
2022-08-04T00:22:07.888Z,5.07
2022-08-04T00:24:37.027Z,5.82
2022-08-04T00:27:06.527Z,11.52
2022-08-04T00:29:34.915Z,10.40
2022-08-04T00:32:03.724Z,10.02
2022-08-04T00:34:33.995Z,11.48
2022-08-04T00:37:02.933Z,10.63
2022-08-04T00:39:31.849Z,9.90
2022-08-04T00:42:59.395Z,8.13
2022-08-04T00:46:16.748Z,7.15
2022-08-04T00:48:47.374Z,5.47
2022-08-04T00:51:30.766Z,5.68
2022-08-04T00:54:18.003Z,5.22
2022-08-04T00:57:34.071Z,6.00
2022-08-04T01:00:14.786Z,5.30
2022-08-04T01:02:59.800Z,4.95
2022-08-04T01:06:09.741Z,5.20
2022-08-04T01:09:07.905Z,5.00
2022-08-04T01:12:15.651Z,4.88
2022-08-04T01:15:14.678Z,4.90
2022-08-04T01:18:02.226Z,4.82
2022-08-04T01:20:53.845Z,4.85
2022-08-04T01:23:59.472Z,4.88
2022-08-04T01:26:57.856Z,4.97
2022-08-04T01:29:46.714Z,4.65
2022-08-04T01:32:19.665Z,5.00
2022-08-04T01:35:07.529Z,4.93
2022-08-04T01:37:46.044Z,4.95
2022-08-04T01:40:15.447Z,5.03
2022-08-04T01:42:45.576Z,5.00
2022-08-04T01:45:15.247Z,4.63
2022-08-04T01:47:54.937Z,5.05
2022-08-04T01:50:23.368Z,4.70
2022-08-04T01:52:54.672Z,4.70
2022-08-04T01:55:22.593Z,5.30
2022-08-04T01:57:53.125Z,4.40
2022-08-04T02:00:24.062Z,4.65
2022-08-04T02:02:51.905Z,5.00
2022-08-04T02:05:23.007Z,4.93
2022-08-04T02:08:53.664Z,5.03
2022-08-04T02:11:23.938Z,4.50
2022-08-04T02:14:49.771Z,5.00
2022-08-04T02:17:43.494Z,5.25
2022-08-04T02:20:29.173Z,4.72
2022-08-04T02:23:03.325Z,5.32
2022-08-04T02:25:46.018Z,5.78
2022-08-04T02:28:23.044Z,6.30
2022-08-04T02:31:49.358Z,5.13
2022-08-04T02:35:12.150Z,5.85
2022-08-04T02:37:51.878Z,5.32
2022-08-04T02:40:22.595Z,5.93
2022-08-04T02:42:53.565Z,5.60
2022-08-04T02:45:25.410Z,5.70
2022-08-04T02:48:29.185Z,5.95
2022-08-04T02:50:45.099Z,6.20
2022-08-04T02:53:16.726Z,6.10
2022-08-04T02:55:50.666Z,5.55
2022-08-04T02:58:22.084Z,6.10
2022-08-04T03:00:52.159Z,5.38
2022-08-04T03:03:42.761Z,5.95
2022-08-04T03:06:13.180Z,5.90
2022-08-04T03:08:56.313Z,7.53
2022-08-04T03:11:49.878Z,6.63
2022-08-04T03:16:58.089Z,6.30
2022-08-04T03:20:05.860Z,5.93
2022-08-04T03:23:33.452Z,5.25
2022-08-04T03:26:12.503Z,5.97
2022-08-04T03:29:15.886Z,7.10
2022-08-04T03:32:21.513Z,6.07
2022-08-04T03:35:25.425Z,6.20
2022-08-04T03:38:16.369Z,5.72
2022-08-04T03:41:01.597Z,8.48
2022-08-04T03:43:59.963Z,8.68
2022-08-04T03:47:08.346Z,8.98
2022-08-04T03:50:01.059Z,14.55
2022-08-04T03:53:11.954Z,7.40
2022-08-04T03:56:11.873Z,6.95
2022-08-04T03:59:17.303Z,6.20
2022-08-04T04:02:13.069Z,5.90
2022-08-04T04:04:56.572Z,6.55
2022-08-04T04:08:10.066Z,6.60
2022-08-04T04:11:24.122Z,7.40
2022-08-04T04:26:02.877Z,9.40
2022-08-04T04:28:45.395Z,12.98
2022-08-04T04:31:50.918Z,9.50
2022-08-04T04:34:36.050Z,8.27
2022-08-04T04:37:49.317Z,8.75
2022-08-04T04:40:40.862Z,8.75
2022-08-04T04:43:52.275Z,7.95
2022-08-04T04:46:41.597Z,8.57
2022-08-04T04:49:22.531Z,8.20
2022-08-04T04:52:40.454Z,9.38
2022-08-04T04:55:24.989Z,9.30
2022-08-04T04:57:56.105Z,8.80
2022-08-04T05:00:52.494Z,9.00
2022-08-04T05:03:35.522Z,8.73
2022-08-04T05:06:39.910Z,9.10
2022-08-04T05:09:40.123Z,9.98
2022-08-04T05:13:05.162Z,8.75
2022-08-04T05:15:10.426Z,9.93
2022-08-04T05:17:42.002Z,9.48
2022-08-04T05:20:29.143Z,9.52
2022-08-04T05:23:07.898Z,9.02
2022-08-04T05:26:00.189Z,9.57
2022-08-04T05:29:02.440Z,9.37
2022-08-04T05:31:38.053Z,9.00
2022-08-04T05:34:15.720Z,9.55
2022-08-04T05:36:55.571Z,8.75
2022-08-04T05:39:34.350Z,8.68
2022-08-04T05:42:04.380Z,9.13
2022-08-04T05:44:35.487Z,9.80
2022-08-04T05:47:04.522Z,9.35
2022-08-04T05:49:33.399Z,8.93
2022-08-04T05:52:04.693Z,8.65
2022-08-04T05:54:34.418Z,8.35
2022-08-04T05:57:05.194Z,8.15
2022-08-04T05:59:36.535Z,8.05
2022-08-04T06:02:05.635Z,8.05
2022-08-04T06:04:39.350Z,8.05
2022-08-04T06:07:08.236Z,8.02
2022-08-04T06:09:35.319Z,7.68
2022-08-04T06:12:08.897Z,7.55
2022-08-04T06:14:48.776Z,7.85
2022-08-04T06:18:35.251Z,6.72
2022-08-04T06:20:22.933Z,7.40
2022-08-04T06:22:56.288Z,7.28
2022-08-04T06:25:32.475Z,8.23
2022-08-04T06:28:02.075Z,6.60
2022-08-04T06:30:32.943Z,7.78
2022-08-04T06:33:05.112Z,6.95
2022-08-04T06:35:33.954Z,6.47
2022-08-04T06:38:03.291Z,6.30
2022-08-04T06:40:34.085Z,6.22
2022-08-04T06:43:07.857Z,6.88
2022-08-04T06:45:39.179Z,6.60
2022-08-04T06:48:08.169Z,6.85
2022-08-04T06:51:32.541Z,6.50
2022-08-04T06:53:28.081Z,6.30
2022-08-04T06:55:58.240Z,6.85
2022-08-04T06:58:26.750Z,6.93
2022-08-04T07:01:01.734Z,6.00
2022-08-04T07:03:30.993Z,6.68
2022-08-04T07:05:58.683Z,6.57
2022-08-04T07:08:34.900Z,6.18
2022-08-04T07:11:02.454Z,6.25
2022-08-04T07:13:32.604Z,6.50
2022-08-04T07:16:01.476Z,6.10
2022-08-04T07:18:31.861Z,6.18
2022-08-04T07:20:59.281Z,6.03
2022-08-04T07:23:27.676Z,6.75
2022-08-04T07:26:01.125Z,6.47
2022-08-04T07:28:40.941Z,6.25
2022-08-04T07:31:32.972Z,5.68
2022-08-04T07:34:16.660Z,5.57
2022-08-04T07:36:56.002Z,5.55
2022-08-04T07:39:29.631Z,5.10
2022-08-04T07:42:01.393Z,5.63
2022-08-04T07:44:31.118Z,6.35
2022-08-04T07:46:58.759Z,5.40
2022-08-04T07:49:52.166Z,5.30
2022-08-04T07:52:14.742Z,5.65
2022-08-04T07:54:43.448Z,4.97
2022-08-04T07:57:20.992Z,5.30
2022-08-04T07:59:57.848Z,5.15
2022-08-04T08:02:25.649Z,5.13
2022-08-04T08:04:53.437Z,5.38
2022-08-04T08:07:21.325Z,5.50
2022-08-04T08:09:48.778Z,5.40
2022-08-04T08:12:38.168Z,6.13
2022-08-04T08:15:06.438Z,4.60
2022-08-04T08:17:58.150Z,5.30
2022-08-04T08:20:29.001Z,4.47
2022-08-04T08:22:57.864Z,16.88
2022-08-04T08:25:25.490Z,6.72
2022-08-04T08:27:56.183Z,3.70
2022-08-04T08:30:25.164Z,4.80
2022-08-04T08:33:02.567Z,4.18
2022-08-04T08:35:54.419Z,4.50
2022-08-04T08:38:51.580Z,4.25
2022-08-04T08:41:42.983Z,6.07
2022-08-04T08:44:37.465Z,4.45
2022-08-04T08:47:30.512Z,4.57
2022-08-04T08:50:25.508Z,4.38
2022-08-04T08:53:15.204Z,4.20
2022-08-04T08:56:03.052Z,3.50
2022-08-04T08:58:39.571Z,4.28
2022-08-04T09:01:46.834Z,4.60
2022-08-04T09:04:32.016Z,4.28
2022-08-04T09:07:30.126Z,4.60
2022-08-04T09:10:33.671Z,4.50
2022-08-04T09:13:15.860Z,4.60
2022-08-04T09:16:04.381Z,4.53
2022-08-04T09:18:41.562Z,3.83
2022-08-04T09:21:29.869Z,4.22
2022-08-04T09:24:35.421Z,8.60
2022-08-04T09:27:38.593Z,4.40
2022-08-04T09:30:12.391Z,4.22
2022-08-04T09:32:39.322Z,5.28
2022-08-04T09:35:37.433Z,4.15
2022-08-04T09:38:26.489Z,3.70
2022-08-04T09:41:20.713Z,3.80
2022-08-04T09:44:52.373Z,4.40
2022-08-04T09:47:15.741Z,3.85
2022-08-04T09:50:10.835Z,4.47
2022-08-04T09:53:13.384Z,4.20
2022-08-04T09:55:53.695Z,4.28
2022-08-04T09:58:46.516Z,4.43
2022-08-04T10:01:28.708Z,4.35
2022-08-04T10:04:06.008Z,4.40
2022-08-04T10:07:09.703Z,4.47
2022-08-04T10:10:14.833Z,3.90
2022-08-04T10:13:05.722Z,4.10
2022-08-04T10:16:16.217Z,4.05
2022-08-04T10:19:32.549Z,4.00
2022-08-04T10:22:28.550Z,3.70
2022-08-04T10:26:03.686Z,3.88
2022-08-04T10:28:15.521Z,3.83
2022-08-04T10:31:09.752Z,4.45
2022-08-04T10:34:20.106Z,3.92
2022-08-04T10:37:22.077Z,3.72
2022-08-04T10:40:37.071Z,4.63
2022-08-04T10:43:07.947Z,4.28
2022-08-04T10:46:28.524Z,6.88
2022-08-04T10:49:06.645Z,3.80
2022-08-04T10:52:02.069Z,3.85
2022-08-04T10:54:48.219Z,3.97
2022-08-04T10:57:44.183Z,4.90
2022-08-04T11:00:19.987Z,4.05
2022-08-04T11:02:53.699Z,7.75
2022-08-04T11:05:55.438Z,3.97
2022-08-04T11:08:36.374Z,4.20
2022-08-04T11:11:07.905Z,3.80
2022-08-04T11:13:47.055Z,4.53
2022-08-04T11:16:22.591Z,4.40
2022-08-04T11:19:17.898Z,4.38
2022-08-04T11:21:55.715Z,3.80
2022-08-04T11:25:05.550Z,4.50
2022-08-04T11:27:47.875Z,4.10
2022-08-04T11:30:17.765Z,4.35
2022-08-04T11:33:10.936Z,4.55
2022-08-04T11:36:04.155Z,3.55
2022-08-04T11:39:04.621Z,4.75
2022-08-04T11:41:56.729Z,4.50
2022-08-04T11:44:43.608Z,4.15
2022-08-04T11:47:39.804Z,4.20
2022-08-04T11:50:42.263Z,4.10
2022-08-04T11:53:19.537Z,4.93
2022-08-04T11:56:07.656Z,4.28
2022-08-04T11:58:38.100Z,4.22
2022-08-04T12:01:50.656Z,4.07
2022-08-04T12:04:47.538Z,4.27
2022-08-04T12:07:31.102Z,10.73
2022-08-04T12:10:45.800Z,4.05
2022-08-04T12:13:40.626Z,4.50
2022-08-04T12:16:36.168Z,4.03
2022-08-04T12:19:17.096Z,4.20
2022-08-04T12:21:53.183Z,4.43
2022-08-04T12:24:34.465Z,4.20
2022-08-04T12:27:30.856Z,4.40
2022-08-04T12:31:00.012Z,4.30
2022-08-04T12:34:02.852Z,4.07
2022-08-04T12:36:26.066Z,5.47
2022-08-04T12:39:13.157Z,4.57
2022-08-04T12:41:52.095Z,4.20
2022-08-04T12:44:36.420Z,4.22
2022-08-04T12:47:26.246Z,3.97
2022-08-04T12:50:03.860Z,4.47
2022-08-04T12:53:04.016Z,3.92
2022-08-04T12:55:35.246Z,4.30
2022-08-04T12:58:43.330Z,4.47
2022-08-04T13:02:07.838Z,4.15
2022-08-04T13:04:15.369Z,4.40
2022-08-04T13:06:44.607Z,3.92
2022-08-04T13:09:20.616Z,5.80
2022-08-04T13:11:57.956Z,4.20
2022-08-04T13:14:33.594Z,4.60
2022-08-04T13:17:01.972Z,4.32
2022-08-04T13:19:31.373Z,8.52
2022-08-04T13:22:09.820Z,4.05
2022-08-04T13:24:56.539Z,4.40
2022-08-04T13:27:26.079Z,3.92
2022-08-04T13:30:00.602Z,4.10
2022-08-04T13:32:34.232Z,3.88
2022-08-04T13:35:03.989Z,4.10
2022-08-04T13:37:39.226Z,4.25
2022-08-04T13:40:14.367Z,4.47
2022-08-04T13:42:48.013Z,4.30
2022-08-04T13:45:20.190Z,3.97
2022-08-04T13:47:50.295Z,3.90
2022-08-04T13:50:30.686Z,4.20
2022-08-04T13:53:01.282Z,4.20
2022-08-04T13:55:35.365Z,4.43
2022-08-04T13:58:13.600Z,4.00
2022-08-04T14:01:03.386Z,6.97
2022-08-04T14:03:54.288Z,4.60
2022-08-04T14:06:29.022Z,10.45
2022-08-04T14:09:01.945Z,4.20
2022-08-04T14:12:10.973Z,4.43
2022-08-04T14:14:48.956Z,4.00
2022-08-04T14:17:30.480Z,4.97
2022-08-04T14:20:04.021Z,4.63
2022-08-04T14:22:37.074Z,4.50
2022-08-04T14:25:07.350Z,4.35
2022-08-04T14:27:48.122Z,4.10
2022-08-04T14:30:25.355Z,4.30
2022-08-04T14:34:01.918Z,4.30
2022-08-04T14:36:03.851Z,4.30
2022-08-04T14:39:00.570Z,4.40
2022-08-04T14:41:43.709Z,8.85
2022-08-04T14:46:55.121Z,4.70
2022-08-04T14:49:22.948Z,4.53
2022-08-04T14:51:59.079Z,4.05
2022-08-04T14:54:30.355Z,4.88
2022-08-04T14:57:05.457Z,4.65
2022-08-04T15:00:01.625Z,4.38
2022-08-04T15:02:30.462Z,4.60
2022-08-04T15:04:59.791Z,4.53
2022-08-04T15:07:46.875Z,4.80
2022-08-04T15:10:14.226Z,4.72
2022-08-04T15:12:41.771Z,4.60
2022-08-04T15:15:34.180Z,4.60
2022-08-04T15:17:56.593Z,4.88
2022-08-04T15:20:23.885Z,4.50
2022-08-04T15:22:51.046Z,4.78
2022-08-04T15:25:18.881Z,4.25
2022-08-04T15:27:51.288Z,4.50
2022-08-04T15:30:19.121Z,4.68
2022-08-04T15:32:57.390Z,4.78
2022-08-04T15:35:30.812Z,4.82
2022-08-04T15:38:12.784Z,5.10
2022-08-04T15:41:12.064Z,4.88
2022-08-04T15:43:58.842Z,5.10
2022-08-04T15:46:46.764Z,4.90
2022-08-04T15:49:25.401Z,5.20
2022-08-04T15:52:15.941Z,5.07
2022-08-04T15:54:52.551Z,5.00
2022-08-04T15:58:00.229Z,4.97
2022-08-04T16:00:28.514Z,5.05
2022-08-04T16:02:55.994Z,5.03
2022-08-04T16:05:23.495Z,5.35
2022-08-04T16:08:15.645Z,5.35
2022-08-04T16:10:46.299Z,4.93
2022-08-04T16:13:23.547Z,5.13
2022-08-04T16:16:03.499Z,5.18
2022-08-04T16:18:30.825Z,5.45
2022-08-04T16:21:06.754Z,5.63
2022-08-04T16:23:55.899Z,5.70
2022-08-04T16:26:45.146Z,5.78
2022-08-04T16:29:30.665Z,6.00
2022-08-04T16:32:20.436Z,5.50
2022-08-04T16:35:17.521Z,8.10
2022-08-04T16:37:44.559Z,5.90
2022-08-04T16:40:45.268Z,6.90
2022-08-04T16:43:18.387Z,5.95
2022-08-04T16:46:00.983Z,6.82
2022-08-04T16:48:34.650Z,6.70
2022-08-04T16:51:13.092Z,5.95
2022-08-04T16:53:52.374Z,5.75
2022-08-04T16:56:34.478Z,6.13
2022-08-04T16:59:10.345Z,6.15
2022-08-04T17:01:52.487Z,6.00
2022-08-04T17:04:34.329Z,6.43
2022-08-04T17:07:04.644Z,6.55
2022-08-04T17:09:32.944Z,6.72
2022-08-04T17:12:02.219Z,31.80
2022-08-04T17:14:31.354Z,7.18
2022-08-04T17:17:03.560Z,6.80
2022-08-04T17:19:30.518Z,7.28
2022-08-04T17:22:07.392Z,8.00
2022-08-04T17:24:40.961Z,7.00
2022-08-04T17:28:08.719Z,8.65
2022-08-04T17:29:58.467Z,7.90
2022-08-04T17:32:25.846Z,7.88
2022-08-04T17:35:00.246Z,7.15
2022-08-04T17:37:40.086Z,7.47
2022-08-04T17:40:18.490Z,7.28
2022-08-04T17:44:02.825Z,7.57
2022-08-04T17:49:31.017Z,7.93
2022-08-04T17:52:41.311Z,7.53
2022-08-04T17:55:16.425Z,8.43
2022-08-04T17:57:52.154Z,8.45
2022-08-04T18:00:20.120Z,8.43
2022-08-04T18:02:54.716Z,13.63
2022-08-04T18:05:50.164Z,29.83
2022-08-04T18:08:40.018Z,8.73
2022-08-04T18:11:06.317Z,8.27
2022-08-04T18:13:42.734Z,8.43
2022-08-04T18:16:22.736Z,8.15
2022-08-04T18:19:14.793Z,14.45
2022-08-04T18:21:46.025Z,9.00
2022-08-04T18:24:35.658Z,8.82
2022-08-04T18:27:24.488Z,11.02
2022-08-04T18:30:33.313Z,9.95
2022-08-04T18:32:56.412Z,10.10
2022-08-04T18:36:31.303Z,9.57
2022-08-04T18:38:22.867Z,9.10
2022-08-04T18:41:03.762Z,9.70
2022-08-04T18:43:40.651Z,10.07
2022-08-04T18:48:55.777Z,9.40
2022-08-04T18:51:30.644Z,11.82
2022-08-04T18:53:59.186Z,10.77
2022-08-04T18:59:15.636Z,10.32
2022-08-04T19:02:13.064Z,11.15
2022-08-04T19:04:36.723Z,10.60
2022-08-04T19:07:29.531Z,10.63
2022-08-04T19:09:57.258Z,10.43
2022-08-04T19:12:26.842Z,11.02
2022-08-04T19:14:58.115Z,11.35
2022-08-04T19:17:54.261Z,12.02
2022-08-04T19:20:24.201Z,11.82
2022-08-04T19:24:10.687Z,12.38
2022-08-04T19:25:59.959Z,11.48
2022-08-04T19:28:31.877Z,11.32
2022-08-04T19:31:05.580Z,10.52
2022-08-04T19:33:58.867Z,10.45
2022-08-04T19:36:21.151Z,10.75
2022-08-04T19:38:59.906Z,10.63
2022-08-04T19:41:29.633Z,10.70
2022-08-04T19:43:58.565Z,10.13
2022-08-04T19:46:28.492Z,10.02
2022-08-04T19:48:59.457Z,10.50
2022-08-04T19:51:32.900Z,9.95
2022-08-04T19:54:02.731Z,9.82
2022-08-04T19:56:40.436Z,10.15
2022-08-04T19:59:11.591Z,9.85
2022-08-04T20:01:45.171Z,10.00
2022-08-04T20:04:14.867Z,9.77
2022-08-04T20:06:45.465Z,9.82
2022-08-04T20:09:25.651Z,9.20
2022-08-04T20:11:56.471Z,9.02
2022-08-04T20:17:15.534Z,9.73
2022-08-04T20:19:51.001Z,10.10
2022-08-04T20:22:52.054Z,10.07
2022-08-04T20:25:18.197Z,10.13
2022-08-04T20:27:59.791Z,9.82
2022-08-04T20:30:29.429Z,10.48
2022-08-04T20:32:57.768Z,10.52
2022-08-04T20:35:26.809Z,10.45
2022-08-04T20:38:00.402Z,10.55
2022-08-04T20:40:30.461Z,10.70
2022-08-04T20:42:59.719Z,9.93
2022-08-04T20:45:56.562Z,10.30
2022-08-04T20:48:14.937Z,10.52
2022-08-04T20:50:46.315Z,10.45
2022-08-04T20:53:17.050Z,9.90
2022-08-04T20:55:55.335Z,10.13
2022-08-04T20:58:27.297Z,10.18
2022-08-04T21:00:55.852Z,9.88
2022-08-04T21:03:49.646Z,9.68
2022-08-04T21:06:11.187Z,10.00
2022-08-04T21:08:40.802Z,9.65
2022-08-04T21:11:08.963Z,9.80
2022-08-04T21:13:51.952Z,9.75
2022-08-04T21:16:54.891Z,9.85
2022-08-04T21:19:07.670Z,9.75
2022-08-04T21:21:42.346Z,9.60
2022-08-04T21:24:10.053Z,9.75
2022-08-04T21:26:42.757Z,9.77
2022-08-04T21:29:10.211Z,10.02
2022-08-04T21:31:50.330Z,10.15
2022-08-04T21:34:39.559Z,10.15
2022-08-04T21:37:05.679Z,10.02
2022-08-04T21:39:33.231Z,10.65
2022-08-04T21:42:29.109Z,11.07
2022-08-04T21:44:58.124Z,10.00
2022-08-04T21:47:25.272Z,10.13
2022-08-04T21:49:56.580Z,10.25
2022-08-04T21:52:25.350Z,10.27
2022-08-04T21:54:54.528Z,10.30
2022-08-04T21:57:25.295Z,10.27
2022-08-04T21:59:53.001Z,10.20
2022-08-04T22:02:20.141Z,9.85
2022-08-04T22:04:48.882Z,10.43
2022-08-04T22:07:17.048Z,10.25
2022-08-04T22:10:00.155Z,10.77
2022-08-04T22:12:33.623Z,10.48
2022-08-04T22:15:01.691Z,10.30
2022-08-04T22:17:48.740Z,9.95
2022-08-04T22:20:27.628Z,10.13
2022-08-04T22:23:00.129Z,10.60
2022-08-04T22:25:33.456Z,11.05
2022-08-04T22:28:07.883Z,10.75
2022-08-04T22:30:37.704Z,10.45
2022-08-04T22:33:08.485Z,10.23
2022-08-04T22:35:48.651Z,9.98
2022-08-04T22:38:28.007Z,10.27
2022-08-04T22:41:14.201Z,10.32
2022-08-04T22:43:42.200Z,10.38
2022-08-04T22:46:19.682Z,10.02
2022-08-04T22:48:47.133Z,9.93
2022-08-04T22:51:14.707Z,9.45
2022-08-04T22:53:48.604Z,9.75
2022-08-04T22:56:37.865Z,9.77
2022-08-04T22:59:10.023Z,9.88
2022-08-04T23:01:59.154Z,9.85
2022-08-04T23:04:26.552Z,9.73
2022-08-04T23:06:54.728Z,9.70
2022-08-04T23:09:48.771Z,9.27
2022-08-04T23:12:25.859Z,10.23
2022-08-04T23:14:55.858Z,10.55
2022-08-04T23:17:24.232Z,9.93
2022-08-04T23:19:58.191Z,9.48
2022-08-04T23:22:41.271Z,8.95
2022-08-04T23:25:15.350Z,9.07
2022-08-04T23:27:51.659Z,8.98
2022-08-04T23:30:29.690Z,8.55
2022-08-04T23:32:58.239Z,8.43
2022-08-04T23:35:25.200Z,8.75
2022-08-04T23:37:56.551Z,8.27
2022-08-04T23:40:33.337Z,8.68
2022-08-04T23:43:17.470Z,8.60
2022-08-04T23:46:03.967Z,8.13
2022-08-04T23:48:39.136Z,8.57
2022-08-04T23:51:14.773Z,8.45
2022-08-04T23:54:03.455Z,8.35
2022-08-04T23:56:32.911Z,9.18
2022-08-04T23:59:03.820Z,8.77
